Time;durP1;ratioP1;P1;durP2;ratioP2;P2;SDS_P1;SDS_P2;PMS_P1;PMS_P2;Temp;Humidity;BMP_temperature;BMP_pressure;BME280_temperature;BME280_humidity;BME280_pressure;Samples;Min_cycle;Max_cycle;Signal;HPM_P1;HPM_P2
2022/06/16 00:00:38;;;;;;;4.38;3.58;;;;;;;;;;4997331;28;20046;-74
2022/06/16 00:03:06;;;;;;;5.20;3.90;;;;;;;;;;4997495;28;20046;-74
2022/06/16 00:05:34;;;;;;;5.82;4.50;;;;;;;;;;4997192;28;20060;-74
2022/06/16 00:08:04;;;;;;;6.35;3.88;;;;;;;;;;4997212;28;20043;-74
2022/06/16 00:10:32;;;;;;;4.10;3.63;;;;;;;;;;4997197;28;20035;-74
2022/06/16 00:12:58;;;;;;;7.00;3.80;;;;;;;;;;4997098;28;20062;-74
2022/06/16 00:15:27;;;;;;;5.70;3.67;;;;;;;;;;4996541;28;20046;-74
2022/06/16 00:17:54;;;;;;;5.97;3.92;;;;;;;;;;4996671;28;20038;-74
2022/06/16 00:20:20;;;;;;;7.05;3.97;;;18.90;99.90;;;;;;4996764;28;20080;-74
2022/06/16 00:22:46;;;;;;;6.72;4.25;;;18.80;1.00;;;;;;4996819;28;20066;-74
2022/06/16 00:25:12;;;;;;;7.20;3.80;;;;;;;;;;4996217;28;20511;-74
2022/06/16 00:27:38;;;;;;;9.80;3.97;;;;;;;;;;4996368;28;20046;-74
2022/06/16 00:30:05;;;;;;;4.47;3.50;;;;;;;;;;4996456;28;20073;-74
2022/06/16 00:32:31;;;;;;;5.60;4.00;;;;;;;;;;4996769;28;20065;-74
2022/06/16 00:34:58;;;;;;;9.30;4.40;;;;;;;;;;4996919;28;20482;-74
2022/06/16 00:37:24;;;;;;;6.90;4.22;;;;;;;;;;4996278;28;20145;-74
2022/06/16 00:39:50;;;;;;;8.77;4.07;;;;;;;;;;4997074;28;20038;-74
2022/06/16 00:42:21;;;;;;;6.93;4.00;;;;;;;;;;4996075;28;20547;-74
2022/06/16 00:44:51;;;;;;;7.65;4.15;;;;;;;;;;4996427;28;20088;-74
2022/06/16 00:47:22;;;;;;;6.50;4.20;;;;;;;;;;4996325;28;20095;-74
2022/06/16 00:49:50;;;;;;;8.65;4.47;;;;;;;;;;4996672;28;20194;-74
2022/06/16 00:52:22;;;;;;;7.05;4.13;;;;;;;;;;4996045;28;20042;-71
2022/06/16 00:55:01;;;;;;;11.40;4.32;;;;;;;;;;4995849;28;20077;-71
2022/06/16 00:57:31;;;;;;;5.20;3.75;;;;;;;;;;4995125;28;20035;-71
2022/06/16 00:59:58;;;;;;;10.85;4.72;;;;;;;;;;4996048;28;20051;-71
2022/06/16 01:02:28;;;;;;;6.32;4.05;;;;;;;;;;4994905;28;20571;-71
2022/06/16 01:04:54;;;;;;;8.65;4.20;;;;;;;;;;4995802;28;20042;-71
2022/06/16 01:07:24;;;;;;;5.97;4.10;;;;;;;;;;4995497;28;20493;-71
2022/06/16 01:09:51;;;;;;;5.45;3.90;;;;;;;;;;4995529;28;20509;-71
2022/06/16 01:15:27;;;;;;;5.60;4.15;;;;;;;;;;4995478;28;20049;-71
2022/06/16 01:17:53;;;;;;;5.40;3.90;;;;;;;;;;4995988;28;20121;-71
2022/06/16 01:20:55;;;;;;;7.57;4.05;;;;;;;;;;4995882;28;20049;-71
2022/06/16 01:23:27;;;;;;;7.00;4.63;;;;;;;;;;4954583;29;20043;-71
2022/06/16 01:26:02;;;;;;;6.50;4.30;;;;;;;;;;4989166;28;20042;-71
2022/06/16 01:28:46;;;;;;;6.22;3.90;;;;;;;;;;4995646;28;20069;-71
2022/06/16 01:31:38;;;;;;;7.85;4.30;;;;;;;;;;4995701;28;20042;-71
2022/06/16 01:34:11;;;;;;;6.18;4.13;;;;;;;;;;4993510;28;20210;-71
2022/06/16 01:36:39;;;;;;;8.50;4.60;;;;;;;;;;4995839;28;20049;-73
2022/06/16 01:39:14;;;;;;;7.82;4.57;;;;;;;;;;4995327;28;20046;-74
2022/06/16 01:41:43;;;;;;;7.32;4.40;;;;;;;;;;4996020;28;20069;-74
2022/06/16 01:44:22;;;;;;;8.02;4.82;;;;;;;;;;4995165;28;20378;-74
2022/06/16 01:46:51;;;;;;;8.02;4.22;;;;;;;;;;4995283;28;20042;-74
2022/06/16 01:49:23;;;;;;;6.57;4.40;;;;;;;;;;4994123;28;20168;-74
2022/06/16 01:51:58;;;;;;;6.60;4.15;;;;;;;;;;4993955;28;20117;-74
2022/06/16 01:54:36;;;;;;;5.53;4.25;;;;;;;;;;4994351;28;20185;-74
2022/06/16 01:57:02;;;;;;;7.53;4.13;;;;;;;;;;4995223;28;20049;-74
2022/06/16 01:59:33;;;;;;;6.13;3.97;;;;;;;;;;4995936;28;20473;-74
2022/06/16 02:02:02;;;;;;;6.03;4.07;;;;;;;;;;4995188;28;20052;-74
2022/06/16 02:04:45;;;;;;;6.70;4.30;;;;;;;;;;4995260;28;20046;-74
2022/06/16 02:07:17;;;;;;;8.95;5.10;;;;;;;;;;4995468;28;20128;-74
2022/06/16 02:09:46;;;;;;;7.50;4.43;;;;;;;;;;4994818;28;20079;-73
2022/06/16 02:15:03;;;;;;;10.10;4.25;;;;;;;;;;4998818;28;20050;-73
2022/06/16 02:17:29;;;;;;;8.38;4.18;;;;;;;;;;4999628;28;20069;-73
2022/06/16 02:19:56;;;;;;;6.93;4.25;;;;;;;;;;4999185;28;20053;-73
2022/06/16 02:22:22;;;;;;;6.88;4.53;;;;;;;;;;4999332;28;20042;-74
2022/06/16 02:24:48;;;;;;;5.28;4.40;;;;;;;;;;4999049;28;20082;-73
2022/06/16 02:27:14;;;;;;;9.75;4.90;;;;;;;;;;4998782;28;20069;-74
2022/06/16 02:29:40;;;;;;;7.85;4.53;;;;;;;;;;4998752;28;20068;-74
2022/06/16 02:32:16;;;;;;;9.75;5.05;;;;;;;;;;4999527;28;20048;-73
2022/06/16 02:35:01;;;;;;;9.48;5.07;;;;;;;;;;4998726;28;20057;-73
2022/06/16 02:37:44;;;;;;;6.47;5.03;;;;;;;;;;4998616;28;20038;-74
2022/06/16 02:40:19;;;;;;;10.85;4.75;;;;;;;;;;4998273;28;20034;-74
2022/06/16 02:42:51;;;;;;;9.27;4.32;;;;;;;;;;4998769;28;20042;-74
2022/06/16 02:45:25;;;;;;;7.75;4.40;;;;;;;;;;4998413;28;20077;-73
2022/06/16 02:47:58;;;;;;;6.95;4.70;;;;;;;;;;4998841;28;20132;-73
2022/06/16 02:50:33;;;;;;;6.25;4.60;;;;;;;;;;4998620;28;20073;-73
2022/06/16 02:53:11;;;;;;;8.13;5.00;;;;;;;;;;4998349;28;20046;-73
2022/06/16 02:55:45;;;;;;;14.35;4.88;;;;;;;;;;4998259;28;20045;-73
2022/06/16 02:58:14;;;;;;;8.13;4.68;;;;;;;;;;4998508;28;20057;-74
2022/06/16 03:00:41;;;;;;;16.55;4.88;;;;;;;;;;4998452;28;20042;-74
2022/06/16 03:03:24;;;;;;;7.70;5.07;;;;;;;;;;4998830;28;20038;-71
2022/06/16 03:05:54;;;;;;;7.82;4.63;;;;;;;;;;4998173;28;20418;-71
2022/06/16 03:08:22;;;;;;;9.43;5.20;;;;;;;;;;4998536;28;20038;-71
2022/06/16 03:10:51;;;;;;;7.88;4.55;;;;;;;;;;4998232;28;20169;-71
2022/06/16 03:13:28;;;;;;;6.53;4.40;;;;;;;;;;4997685;28;20062;-71
2022/06/16 03:15:56;;;;;;;13.98;5.50;;;;;;;;;;4998219;28;20046;-73
2022/06/16 03:18:22;;;;;;;7.57;4.80;;;;;;;;;;4998036;28;20126;-73
2022/06/16 03:20:49;;;;;;;7.32;4.70;;;;;;;;;;4997301;28;20039;-73
2022/06/16 03:23:16;;;;;;;7.95;5.05;;;;;;;;;;4997740;28;20159;-73
2022/06/16 03:25:42;;;;;;;10.63;5.32;;;;;;;;;;4997618;28;20500;-73
2022/06/16 03:28:09;;;;;;;10.35;5.22;;;;;;;;;;4997240;28;20046;-73
2022/06/16 03:30:36;;;;;;;10.93;5.18;;;;;;;;;;4997320;28;20385;-73
2022/06/16 03:33:03;;;;;;;8.70;4.82;;;;;;;;;;4997404;28;20120;-73
2022/06/16 03:35:29;;;;;;;7.50;4.82;;;;;;;;;;4997679;28;20038;-73
2022/06/16 03:37:56;;;;;;;8.80;4.90;;;;;;;;;;4997504;28;20049;-73
2022/06/16 03:40:22;;;;;;;11.30;5.13;;;;;;;;;;4997425;28;20042;-73
2022/06/16 03:42:49;;;;;;;10.73;6.07;;;;;;;;;;4997425;28;20042;-73
2022/06/16 03:45:16;;;;;;;9.63;5.20;;;;;;;;;;4997015;28;20124;-73
2022/06/16 03:47:42;;;;;;;8.75;5.03;;;;;;;;;;4997683;28;20046;-73
2022/06/16 03:50:12;;;;;;;8.13;4.75;;;;;;;;;;4997536;28;20042;-73
2022/06/16 03:52:38;;;;;;;8.57;5.20;;;;;;;;;;4997392;28;20069;-74
2022/06/16 03:55:04;;;;;;;9.48;4.97;;;;;;;;;;4997467;28;20050;-74
2022/06/16 03:57:30;;;;;;;8.95;5.30;;;;;;;;;;4996965;28;20043;-73
2022/06/16 03:59:56;;;;;;;6.53;4.80;;;;;;;;;;4996788;28;20035;-73
2022/06/16 04:02:23;;;;;;;9.32;6.00;;;;;;;;;;4997259;28;20072;-73
2022/06/16 04:04:49;;;;;;;16.63;5.38;;;;;;;;;;4996940;28;20572;-73
2022/06/16 04:07:15;;;;;;;13.40;5.28;;;;;;;;;;4996931;28;20048;-74
2022/06/16 04:09:41;;;;;;;6.88;5.35;;;;;;;;;;4997067;28;20046;-74
2022/06/16 04:12:07;;;;;;;14.18;6.32;;;;;;;;;;4997178;28;20077;-73
2022/06/16 04:14:33;;;;;;;9.65;5.65;;;;;;;;;;4996378;28;20135;-73
2022/06/16 04:16:59;;;;;;;10.50;4.72;;;;;;;;;;4996720;28;20085;-73
2022/06/16 04:19:26;;;;;;;9.25;5.53;;;;;;;;;;4996996;28;20511;-73
2022/06/16 04:21:53;;;;;;;8.40;5.30;;;;;;;;;;4996972;28;20042;-73
2022/06/16 04:24:20;;;;;;;8.60;5.32;;;;;;;;;;4996541;28;20157;-73
2022/06/16 04:26:47;;;;;;;9.43;4.93;;;;;;;;;;4996401;28;20042;-73
2022/06/16 04:29:14;;;;;;;7.30;5.25;;;;;;;;;;4996262;28;20034;-73
2022/06/16 04:31:40;;;;;;;10.88;5.43;;;;;;;;;;4996762;28;20042;-73
2022/06/16 04:34:09;;;;;;;8.63;4.93;;;;;;;;;;4995211;28;20417;-73
2022/06/16 04:36:35;;;;;;;9.27;4.97;;;;;;;;;;4996352;28;20216;-74
2022/06/16 04:39:01;;;;;;;9.05;5.63;;;;;;;;;;4996388;28;20042;-73
2022/06/16 04:41:28;;;;;;;9.35;5.18;;;;;;;;;;4996065;28;20068;-73
2022/06/16 04:43:54;;;;;;;7.93;5.25;;;;;;;;;;4996001;28;20140;-74
2022/06/16 04:46:21;;;;;;;12.30;5.35;;;;;;;;;;4995935;28;20048;-73
2022/06/16 04:48:47;;;;;;;7.50;5.00;;;;;;;;;;4996124;28;20041;-73
2022/06/16 04:51:14;;;;;;;8.88;4.93;;;;;;;;;;4995818;28;20038;-73
2022/06/16 04:53:40;;;;;;;9.48;6.22;;;;;;;;;;4995817;28;20054;-74
2022/06/16 04:56:07;;;;;;;8.02;4.97;;;;;;;;;;4995757;28;20064;-73
2022/06/16 04:58:33;;;;;;;10.20;5.20;;;;;;;;;;4995818;28;20100;-74
2022/06/16 05:00:59;;;;;;;7.53;4.90;;;;;;;;;;4994657;28;20441;-73
2022/06/16 05:03:26;;;;;;;10.52;5.40;;;;;;;;;;4995786;28;20153;-73
2022/06/16 05:05:53;;;;;;;8.60;5.05;;;;;;;;;;4995566;28;20054;-73
2022/06/16 05:08:19;;;;;;;10.02;5.03;;;;;;;;;;4996054;28;20045;-73
2022/06/16 05:10:47;;;;;;;8.88;5.30;;;;;;;;;;4995740;28;20077;-73
2022/06/16 05:13:13;;;;;;;10.18;5.07;;;;;;;;;;4999438;28;20436;-73
2022/06/16 05:15:39;;;;;;;8.63;4.82;;;;;;;;;;5015337;28;20042;-73
2022/06/16 05:18:06;;;;;;;11.02;4.90;;;;;;;;;;5008306;28;20046;-73
2022/06/16 05:20:32;;;;;;;13.70;5.13;;;;;;;;;;4995484;28;20044;-73
2022/06/16 05:22:58;;;;;;;12.68;4.95;;;;;;;;;;4994255;28;20046;-73
2022/06/16 05:25:24;;;;;;;10.95;5.05;;;;;;;;;;4995799;28;20081;-73
2022/06/16 05:27:51;;;;;;;12.73;4.97;;;;;;;;;;4995268;28;20133;-73
2022/06/16 05:30:17;;;;;;;8.65;4.15;;;;;;;;;;4995048;28;20440;-73
2022/06/16 05:32:43;;;;;;;8.07;5.53;;;;;;;;;;4994897;28;20050;-73
2022/06/16 05:35:12;;;;;;;7.35;4.88;;;;;;;;;;4993306;28;20042;-78
2022/06/16 05:37:39;;;;;;;10.25;4.63;;;;;;;;;;4999005;28;20042;-78
2022/06/16 05:40:05;;;;;;;14.25;5.38;;;;;;;;;;4994093;28;20578;-74
2022/06/16 05:42:32;;;;;;;9.27;4.55;;;;;;;;;;4993436;28;20096;-74
2022/06/16 05:44:59;;;;;;;7.18;4.40;;;;;;;;;;4994097;28;20130;-74
2022/06/16 05:47:25;;;;;;;10.85;5.00;;;;;;;;;;4975887;28;20038;-72
2022/06/16 05:49:52;;;;;;;11.00;4.70;;;;;;;;;;4980735;28;20536;-70
2022/06/16 05:52:19;;;;;;;9.70;4.63;;;;;;;;;;4991860;28;20117;-70
2022/06/16 05:54:46;;;;;;;11.00;4.72;;;;;;;;;;4994733;28;20053;-70
2022/06/16 05:57:12;;;;;;;9.48;4.50;;;;;;;;;;4994068;28;20500;-70
2022/06/16 05:59:39;;;;;;;10.85;4.97;;;;;;;;;;4994533;28;20050;-70
2022/06/16 06:02:07;;;;;;;13.77;5.32;;;;;;;;;;4995113;28;20393;-70
2022/06/16 06:04:34;;;;;;;9.38;5.20;;;;;;;;;;4995274;28;20533;-70
2022/06/16 06:07:00;;;;;;;10.65;4.90;;;;;;;;;;4994900;28;20474;-70
2022/06/16 06:17:47;;;;;;;14.55;5.90;;;;;;;;;;4994344;28;20273;-71
2022/06/16 06:20:13;;;;;;;13.02;4.35;;;;;;;;;;4995372;28;20048;-70
2022/06/16 06:22:39;;;;;;;9.45;4.38;;;;;;;;;;5001284;28;20042;-72
2022/06/16 06:25:06;;;;;;;8.60;4.30;;;;;;;;;;4995423;28;20050;-71
2022/06/16 06:27:45;;;;;;;11.00;4.95;;;;;;;;;;4986778;28;20034;-71
2022/06/16 06:30:16;;;;;;;8.90;4.68;;;;;;;;;;4985043;28;20031;-71
2022/06/16 06:32:43;;;;;;;7.90;4.63;;;;;;;;;;4989916;28;20125;-71
2022/06/16 06:35:10;;;;;;;8.27;4.05;;;;;;;;;;4993818;28;20081;-71
2022/06/16 06:37:36;;;;;;;8.98;4.32;;;;;;;;;;4993252;28;20038;-71
2022/06/16 06:40:03;;;;;;;9.52;4.88;;;;;;;;;;4993671;28;20481;-70
2022/06/16 06:42:29;;;;;;;11.30;4.90;;;;;;;;;;4995073;28;20042;-70
2022/06/16 06:44:55;;;;;;;10.18;5.38;;;;;;;;;;4993666;28;20057;-70
2022/06/16 06:47:26;;;;;;;10.65;5.10;;;;;;;;;;4993777;28;20049;-71
2022/06/16 06:49:52;;;;;;;10.18;5.25;;;;;;;;;;4994053;28;20061;-71
2022/06/16 06:52:19;;;;;;;10.52;5.40;;;;;;;;;;4996413;28;20185;-71
2022/06/16 06:54:46;;;;;;;12.48;4.82;;;;;;;;;;4994760;28;20072;-70
2022/06/16 06:57:13;;;;;;;8.77;4.93;;;;;;;;;;4999175;28;20031;-69
2022/06/16 06:59:39;;;;;;;9.05;4.85;;;;;;;;;;5009346;28;20042;-70
2022/06/16 07:02:06;;;;;;;12.23;4.28;;;;;;;;;;4995939;28;20038;-71
2022/06/16 07:04:32;;;;;;;12.45;4.60;;;;;;;;;;4997814;28;20050;-71
2022/06/16 07:06:58;;;;;;;10.77;4.57;;;;;;;;;;4997277;28;20041;-70
2022/06/16 07:09:24;;;;;;;13.82;5.18;;;;;;;;;;4998275;28;20046;-70
2022/06/16 07:11:50;;;;;;;11.18;4.70;;;;;;;;;;4996947;28;20042;-70
2022/06/16 07:14:16;;;;;;;7.18;4.30;;;;;;;;;;4998341;28;20116;-70
2022/06/16 07:16:43;;;;;;;9.18;4.45;;;;;;;;;;4996838;28;20451;-70
2022/06/16 07:19:10;;;;;;;14.93;4.68;;;;;;;;;;5000834;28;20041;-70
2022/06/16 07:21:36;;;;;;;11.02;4.53;;;;;;;;;;4997813;28;20489;-70
2022/06/16 07:24:02;;;;;;;17.17;5.15;;;;;;;;;;4997687;28;20039;-70
2022/06/16 07:26:28;;;;;;;13.32;5.70;;;;;;;;;;4997765;28;20057;-70
2022/06/16 07:28:57;;;;;;;14.75;4.32;;;;;;;;;;4994990;28;20485;-71
2022/06/16 07:31:23;;;;;;;9.60;4.95;;;;;;;;;;4997566;28;20052;-70
2022/06/16 07:33:49;;;;;;;9.55;5.03;;;;;;;;;;4997863;28;20046;-70
2022/06/16 07:36:15;;;;;;;12.65;4.90;;;;;;;;;;4992353;28;20590;-70
2022/06/16 07:38:41;;;;;;;9.93;4.72;;;;;;;;;;4996277;28;20038;-70
2022/06/16 07:43:53;;;;;;;17.90;5.53;;;;;;;;;;5014030;28;20129;-70
2022/06/16 07:46:20;;;;;;;7.13;5.07;;;;;;;;;;5004148;28;20050;-70
2022/06/16 07:48:46;;;;;;;9.73;4.53;;;;;;;;;;4997310;28;20485;-71
2022/06/16 07:51:12;;;;;;;11.82;4.90;;;;;;;;;;4996327;28;20038;-70
2022/06/16 07:53:38;;;;;;;10.00;4.53;;;;;;;;;;4988641;28;20071;-70
2022/06/16 07:56:05;;;;;;;9.52;4.82;;;;;;;;;;4991817;28;20065;-70
2022/06/16 07:58:32;;;;;;;11.95;4.88;;;;;;;;;;4988278;28;20050;-70
2022/06/16 08:00:59;;;;;;;17.85;6.63;;;;;;;;;;4981579;28;20030;-71
2022/06/16 08:03:29;;;;;;;13.85;5.45;;;;;;;;;;4997299;28;20121;-71
2022/06/16 08:05:56;;;;;;;14.85;5.05;;;;;;;;;;4996699;28;20057;-71
2022/06/16 08:08:23;;;;;;;14.88;5.05;;;;;;;;;;4997217;28;20038;-71
2022/06/16 08:10:50;;;;;;;10.48;5.40;;;;;;;;;;4997081;28;20034;-71
2022/06/16 08:13:16;;;;;;;10.57;5.00;;;;;;;;;;4996683;28;20152;-71
2022/06/16 08:15:45;;;;;;;9.23;5.03;;;;;;;;;;4996749;28;20042;-71
2022/06/16 08:18:12;;;;;;;15.38;5.60;;;;;;;;;;4996184;28;20042;-71
2022/06/16 08:20:38;;;;;;;11.05;4.90;;;;;;;;;;4996309;28;20046;-71
2022/06/16 08:23:04;;;;;;;9.32;5.15;;;;;;;;;;4996990;28;20509;-71
2022/06/16 08:25:31;;;;;;;12.65;4.93;;;;;;;;;;4996573;28;20049;-71
2022/06/16 08:27:57;;;;;;;10.85;5.07;;;;;;;;;;4996277;28;20050;-71
2022/06/16 08:30:24;;;;;;;12.50;5.03;;;;;;;;;;4996437;28;20038;-71
2022/06/16 08:32:51;;;;;;;11.90;5.07;;;;;;;;;;4990354;28;20042;-71
2022/06/16 08:35:17;;;;;;;14.43;4.88;;;;;;;;;;4995684;28;20084;-71
2022/06/16 08:37:43;;;;;;;13.70;5.28;;;;;;;;;;4995563;28;20537;-71
2022/06/16 08:40:10;;;;;;;14.70;5.25;;;;;;;;;;4995674;28;20041;-71
2022/06/16 08:42:53;;;;;;;12.48;4.90;;;;;;;;;;4995772;28;20041;-71
2022/06/16 08:45:21;;;;;;;15.98;4.78;;;;;;;;;;4995951;28;20069;-71
2022/06/16 08:48:06;;;;;;;13.30;4.80;;;;;;;;;;4996107;28;20050;-71
2022/06/16 08:50:41;;;;;;;15.85;4.90;;;;;;;;;;4995810;28;20100;-71
2022/06/16 08:53:10;;;;;;;7.80;3.90;;;;;;;;;;4995725;28;20046;-71
2022/06/16 08:55:50;;;;;;;11.30;5.20;;;;;;;;;;4995406;28;20050;-71
2022/06/16 08:58:27;;;;;;;13.05;4.63;;;;;;;;;;4995790;28;20041;-71
2022/06/16 09:00:59;;;;;;;9.35;4.05;;;;;;;;;;4995256;28;20125;-71
2022/06/16 09:03:29;;;;;;;11.13;4.22;;;;;;;;;;4995073;28;20049;-71
2022/06/16 09:06:07;;;;;;;11.25;4.78;;;;;;;;;;4994644;28;20445;-71
2022/06/16 09:08:42;;;;;;;13.52;4.32;;;;;;;;;;4995893;28;20034;-71
2022/06/16 09:11:14;;;;;;;10.70;4.60;;;;;;;;;;4995362;28;20050;-71
2022/06/16 09:14:03;;;;;;;8.45;4.28;;;;;;;;;;4994606;28;20050;-71
2022/06/16 09:16:38;;;;;;;10.98;3.70;;;;;;;;;;4972688;28;20077;-71
2022/06/16 09:19:18;;;;;;;12.55;4.32;;;;;;;;;;4994195;28;20125;-71
2022/06/16 09:21:53;;;;;;;13.05;4.63;;;;;;;;;;4995665;28;20128;-71
2022/06/16 09:24:19;;;;;;;14.43;5.32;;;;;;;;;;4990238;28;20050;-72
2022/06/16 09:26:46;;;;;;;11.63;4.47;;;;;;;;;;4985266;28;20489;-71
2022/06/16 09:29:19;;;;;;;13.77;4.38;;;;;;;;;;4997385;28;20042;-71
2022/06/16 09:31:51;;;;;;;7.43;4.10;;;;;;;;;;4995332;28;20050;-71
2022/06/16 09:34:26;;;;;;;14.18;4.00;;;;;;;;;;4994234;28;20034;-71
2022/06/16 09:36:56;;;;;;;12.77;3.90;;;;;;;;;;4995419;28;20049;-72
2022/06/16 09:39:22;;;;;;;;;;;;;;;;;;4994812;28;20125;-71
2022/06/16 09:44:56;;;;;;;8.02;3.17;;;;;;;;;;4994967;28;20053;-72
2022/06/16 09:47:26;;;;;;;14.98;3.58;;;;;;;;;;4994656;28;20069;-72
2022/06/16 09:49:58;;;;;;;11.88;3.78;;;;;;;;;;4995813;28;20034;-72
2022/06/16 09:52:32;;;;;;;11.57;2.72;;;;;;;;;;4995255;28;20519;-72
2022/06/16 09:55:04;;;;;;;10.85;3.22;;;;;;;;;;4993907;28;20038;-72
2022/06/16 09:57:44;;;;;;;11.20;3.03;;;;;;;;;;4994917;28;20066;-72
2022/06/16 10:00:13;;;;;;;7.78;2.88;;;;;;;;;;4993311;28;20042;-72
2022/06/16 10:02:46;;;;;;;7.40;3.28;;;;;;;;;;4994283;28;20038;-72
2022/06/16 10:05:17;;;;;;;7.55;3.10;;;;;;;;;;4993780;28;20054;-71
2022/06/16 10:07:57;;;;;;;14.23;4.43;;;;;;;;;;4995473;28;20069;-72
2022/06/16 10:10:36;;;;;;;10.23;3.92;;;;;;;;;;5006615;28;20034;-71
2022/06/16 10:13:25;;;;;;;11.80;4.20;;;;;;;;;;4986441;28;20102;-71
2022/06/16 10:16:07;;;;;;;12.43;4.22;;;;;;;;;;4983805;28;20371;-72
2022/06/16 10:18:33;;;;;;;9.82;4.13;;;;;;;;;;4984748;28;20046;-72
2022/06/16 10:21:02;;;;;;;13.63;4.75;;;;;;;;;;4988163;28;20042;-71
2022/06/16 10:23:35;;;;;;;11.07;4.13;;;;;;;;;;4991934;28;20038;-70
2022/06/16 10:26:06;;;;;;;14.85;4.35;;;;;;;;;;4988813;28;20588;-70
2022/06/16 10:28:59;;;;;;;9.25;3.78;;;;;;;;;;4994141;28;20037;-71
2022/06/16 10:31:46;;;;;;;13.65;4.40;;;;;;;;;;4979838;28;20048;-72
2022/06/16 10:34:36;;;;;;;11.50;3.90;;;;;;;;;;4992178;28;20583;-70
2022/06/16 10:37:05;;;;;;;8.20;3.20;;;;;;;;;;4984278;28;20050;-71
2022/06/16 10:39:42;;;;;;;12.38;3.70;;;;;;;;;;4992986;28;20044;-72
2022/06/16 10:42:14;;;;;;;14.07;4.35;;;;;;;;;;4993716;28;20042;-70
2022/06/16 10:44:41;;;;;;;9.75;3.90;;;;;;;;;;5002084;28;20050;-71
2022/06/16 10:47:17;;;;;;;7.70;3.17;;;;;;;;;;5003484;28;20045;-71
2022/06/16 10:49:45;;;;;;;9.52;3.50;;;;;;;;;;5002576;28;20042;-70
2022/06/16 10:52:14;;;;;;;8.23;3.63;;;;;;;;;;4997589;28;20061;-70
2022/06/16 10:54:45;;;;;;;8.13;3.47;;;;;;;;;;4997436;28;20042;-70
2022/06/16 10:57:17;;;;;;;13.98;3.05;;;;;;;;;;4998276;28;20049;-70
2022/06/16 10:59:47;;;;;;;7.57;2.80;;;;;;;;;;4998524;28;20493;-70
2022/06/16 11:02:21;;;;;;;9.05;2.90;;;;;;;;;;4997806;28;20104;-72
2022/06/16 11:04:51;;;;;;;10.60;3.00;;;;;;;;;;4998063;28;20043;-70
2022/06/16 11:07:19;;;;;;;10.00;3.20;;;;;;;;;;4997854;28;20046;-71
2022/06/16 11:09:45;;;;;;;9.82;2.50;;;;;;;;;;4997757;28;20523;-71
2022/06/16 11:12:17;;;;;;;10.13;2.67;;;;;;;;;;4997963;28;20038;-71
2022/06/16 11:14:57;;;;;;;7.63;2.80;;;;;;;;;;4998337;28;20046;-71
2022/06/16 11:17:23;;;;;;;10.27;2.80;;;;;;;;;;4997942;28;20069;-71
2022/06/16 11:19:58;;;;;;;9.60;2.40;;;;;;;;;;4998183;28;20038;-71
2022/06/16 11:22:38;;;;;;;9.30;2.90;;;;;;;;;;4998515;28;20038;-70
2022/06/16 11:25:06;;;;;;;5.25;2.80;;;;;;;;;;4997194;28;20046;-70
2022/06/16 11:28:02;;;;;;;8.02;2.55;;;;;;;;;;4997523;28;20038;-70
2022/06/16 11:30:28;;;;;;;7.80;2.55;;;;;;;;;;4984692;28;20093;-71
2022/06/16 11:32:54;;;;;;;5.10;2.25;;;;;;;;;;4997806;28;20046;-70
2022/06/16 11:35:24;;;;;;;7.65;3.00;;;;;;;;;;4998147;28;20042;-71
2022/06/16 11:37:56;;;;;;;6.85;2.83;;;;;;;;;;4997773;28;20481;-71
2022/06/16 11:40:28;;;;;;;8.07;3.05;;;;;;;;;;4997522;28;20497;-71
2022/06/16 11:42:57;;;;;;;9.30;2.63;;;;;;;;;;4997109;28;20050;-71
2022/06/16 11:45:45;;;;;;;6.25;2.83;;;;;;;;;;5000925;28;20077;-71
2022/06/16 11:48:29;;;;;;;10.90;3.20;;;;;;;;;;5016831;28;20038;-71
2022/06/16 11:50:59;;;;;;;7.10;2.58;;;;;;;;;;5016970;28;20045;-71
2022/06/16 11:53:31;;;;;;;10.48;2.60;;;;;;;;;;5017004;28;20049;-71
2022/06/16 11:56:20;;;;;;;6.47;2.88;;;;;;;;;;5016568;28;20527;-71
2022/06/16 11:58:54;;;;;;;6.47;2.47;;;;;;;;;;4988292;28;20129;-71
2022/06/16 12:01:23;;;;;;;8.80;2.88;;;;;;;;;;5016441;28;20500;-71
2022/06/16 12:03:49;;;;;;;6.22;2.63;;;;;;;;;;5016488;28;20050;-71
2022/06/16 12:06:15;;;;;;;8.23;2.88;;;;;;;;;;5016645;28;20042;-71
2022/06/16 12:09:00;;;;;;;6.22;2.92;;;;;;;;;;5016354;28;20505;-71
2022/06/16 12:11:35;;;;;;;11.10;2.95;;;;;;;;;;5016524;28;20176;-69
2022/06/16 12:14:01;;;;;;;10.23;3.08;;;;;;;;;;5015856;28;20054;-69
2022/06/16 12:16:27;;;;;;;11.30;2.90;;;;;;;;;;5016596;28;20044;-69
2022/06/16 12:18:59;;;;;;;11.00;2.97;;;;;;;;;;5016416;28;20404;-68
2022/06/16 12:21:28;;;;;;;7.70;2.58;;;;;;;;;;5016107;28;20052;-69
2022/06/16 12:24:01;;;;;;;13.38;2.90;;;;;;;;;;4995996;28;20101;-69
2022/06/16 12:26:42;;;;;;;9.70;2.80;;;;;;;;;;4996360;28;20038;-69
2022/06/16 12:29:17;;;;;;;7.55;2.58;;;;;;;;;;4996599;28;20264;-69
2022/06/16 12:31:43;;;;;;;11.43;3.35;;;;;;;;;;4996623;28;20046;-69
2022/06/16 12:34:19;;;;;;;10.18;3.53;;;;;;;;;;4996497;28;20046;-69
2022/06/16 12:36:51;;;;;;;13.80;3.72;;;;;;;;;;4997034;28;20038;-69
2022/06/16 12:39:24;;;;;;;9.70;3.33;;;;;;;;;;4996970;28;20121;-69
2022/06/16 12:41:51;;;;;;;11.65;3.90;;;;;;;;;;4996504;28;20050;-69
2022/06/16 12:44:30;;;;;;;17.58;3.65;;;;;;;;;;4996125;28;20046;-69
2022/06/16 12:47:00;;;;;;;7.20;3.60;;;;;;;;;;4996230;28;20038;-69
2022/06/16 12:49:31;;;;;;;11.55;3.42;;;;;;;;;;4996459;28;20042;-69
2022/06/16 12:52:20;;;;;;;13.63;4.03;;;;;;;;;;4996488;28;20512;-69
2022/06/16 12:54:50;;;;;;;24.38;5.40;;;;;;;;;;4995521;28;20073;-69
2022/06/16 12:57:39;;;;;;;18.92;3.80;;;;;;;;;;4996248;28;20042;-69
2022/06/16 13:00:11;;;;;;;12.48;3.58;;;;;;;;;;4992854;28;20123;-69
2022/06/16 13:02:40;;;;;;;10.35;3.40;;;;;;;;;;4996157;28;20120;-69
2022/06/16 13:05:10;;;;;;;8.23;2.72;;;;;;;;;;4995687;28;20189;-69
2022/06/16 13:07:42;;;;;;;11.77;3.70;;;;;;;;;;4995830;28;20129;-69
2022/06/16 13:10:09;;;;;;;13.85;3.25;;;;;;;;;;4996191;28;20050;-69
2022/06/16 13:12:36;;;;;;;38.38;4.70;;;;;;;;;;4995571;28;20093;-69
2022/06/16 13:15:02;;;;;;;14.73;3.85;;;;;;;;;;4995821;28;20563;-69
2022/06/16 13:17:35;;;;;;;9.77;3.78;;;;;;;;;;4995675;28;20046;-69
2022/06/16 13:20:05;;;;;;;13.10;4.22;;;;;;;;;;4995453;28;20055;-69
2022/06/16 13:22:35;;;;;;;10.20;3.17;;;;;;;;;;4995050;28;20050;-69
2022/06/16 13:25:06;;;;;;;17.23;3.83;;;;;;;;;;4995271;28;20085;-69
2022/06/16 13:27:39;;;;;;;18.90;3.60;;;;;;;;;;4995164;28;20092;-69
2022/06/16 13:30:05;;;;;;;7.63;2.70;;;;;;;;;;4995090;28;20042;-69
2022/06/16 13:32:32;;;;;;;10.20;2.95;;;;;;;;;;4995018;28;20112;-69
2022/06/16 13:34:59;;;;;;;12.10;3.20;;;;;;;;;;4994873;28;20042;-69
2022/06/16 13:37:27;;;;;;;9.02;2.92;;;;;;;;;;4994818;28;20405;-69
2022/06/16 13:39:59;;;;;;;7.57;3.13;;;;;;;;;;4994718;28;20493;-69
2022/06/16 13:42:43;;;;;;;7.10;2.80;;;;;;;;;;4995604;28;20118;-69
2022/06/16 13:45:12;;;;;;;8.63;2.80;;;;;;;;;;4995173;28;20045;-69
2022/06/16 13:47:46;;;;;;;11.13;3.03;;;;;;;;;;4995022;28;20069;-69
2022/06/16 13:50:23;;;;;;;6.07;2.13;;;;;;;;;;4998123;28;20037;-69
2022/06/16 13:53:03;;;;;;;12.40;2.65;;;;;;;;;;5014976;28;20053;-69
2022/06/16 13:55:32;;;;;;;8.45;2.15;;;;;;;;;;5014563;28;20045;-69
2022/06/16 13:58:30;;;;;;;7.55;2.60;;;;;;;;;;5014376;28;20050;-69
2022/06/16 14:01:11;;;;;;;10.27;2.40;;;;;;;;;;4981504;28;20096;-69
2022/06/16 14:03:47;;;;;;;8.30;2.67;;;;;;;;;;5014374;28;20063;-69
2022/06/16 14:06:13;;;;;;;9.98;2.65;;;;;;;;;;5018740;28;20049;-69
2022/06/16 14:08:50;;;;;;;10.73;3.17;;;;;;;;;;5021240;28;20077;-69
2022/06/16 14:11:25;;;;;;;11.80;2.50;;;;;;;;;;5020602;28;20052;-69
2022/06/16 14:14:10;;;;;;;11.90;3.25;;;;;;;;;;5021402;28;20053;-69
2022/06/16 14:16:40;;;;;;;13.52;2.78;;;;;;;;;;5021475;28;20480;-69
2022/06/16 14:19:29;;;;;;;9.93;2.97;;;;;;;;;;5021111;28;20041;-69
2022/06/16 14:22:01;;;;;;;8.18;2.92;;;;;;;;;;5021645;28;20048;-69
2022/06/16 14:24:48;;;;;;;11.02;3.38;;;;;;;;;;5021299;28;20050;-69
2022/06/16 14:27:17;;;;;;;8.48;3.13;;;;;;;;;;5021031;28;20546;-69
2022/06/16 14:29:44;;;;;;;11.35;3.78;;;;;;;;;;5021837;28;20140;-69
2022/06/16 14:32:13;;;;;;;7.68;3.30;;;;;;;;;;5021797;28;20080;-69
2022/06/16 14:34:46;;;;;;;16.50;3.92;;;;;;;;;;5020903;28;20042;-69
2022/06/16 14:37:13;;;;;;;11.00;3.05;;;;;;;;;;5021585;28;20038;-69
2022/06/16 14:39:48;;;;;;;14.85;3.65;;;;;;;;;;5021167;28;20037;-69
2022/06/16 14:42:17;;;;;;;8.25;3.30;;;;;;;;;;5021192;28;20092;-69
2022/06/16 14:45:04;;;;;;;8.73;3.45;;;;;;;;;;5020872;28;20056;-69
2022/06/16 14:47:39;;;;;;;9.55;3.33;;;;;;;;;;4990738;28;20053;-69
2022/06/16 14:50:10;;;;;;;7.38;3.38;;;;;;;;;;5021272;28;20042;-69
2022/06/16 14:52:50;;;;;;;11.68;3.40;;;;;;;;;;5012309;28;20049;-69
2022/06/16 14:55:19;;;;;;;10.05;3.45;;;;;;;;;;5000883;28;20054;-69
2022/06/16 14:57:47;;;;;;;12.82;4.20;;;;;;;;;;5000682;28;20042;-69
2022/06/16 15:00:18;;;;;;;7.82;3.10;;;;;;;;;;5000974;28;20098;-69
2022/06/16 15:02:44;;;;;;;12.18;3.10;;;;;;;;;;5001703;28;20077;-69
2022/06/16 15:05:13;;;;;;;8.73;3.17;;;;;;;;;;5001063;28;20042;-69
2022/06/16 15:07:40;;;;;;;10.65;3.28;;;;;;;;;;5001357;28;20085;-69
2022/06/16 15:10:07;;;;;;;11.38;3.17;;;;;;;;;;5001137;28;20042;-69
2022/06/16 15:12:35;;;;;;;10.68;3.30;;;;;;;;;;5000726;28;20064;-69
2022/06/16 15:15:02;;;;;;;8.32;3.13;;;;;;;;;;5001651;28;20046;-69